Thunder radar more information blitzortung!


Radar de pluja more information rain snow radar


Visita la nostra xarxa de llocs de meteo:

Template documentation
and downloads

And another site



No particular awareness of the weather is required.    There are no Weather-warnings

Pagina Historial Weather Underground text

Diari Resum Juliol 9, 2017 Unitats:  Mètric    Imperial   Tant
« Previous Dia
SegĂźent Dia »
Diari Setmana Mensual Anual Personalitzada
  Maxima: Minima: Media:
Temperatura: 32.2 °C 19.3 °C 26.7 °C
Punt de rosada: 18.4 °C 14.7 °C 16.7 °C
Humitat: 83 % 37 % 57 %
Wind Speed: 20.4 km/h 0.0 km/h 7.2 km/h
RĂ fegues de vent: 20.4 km/h - -
Vent:- - SSE
Pression baro: 1011.7 hPa 1009.0 hPa -
Precipitacions: 1.0 mm    
Historical Graphs
 
 
Dades de taula per Juliol 9, 2017
Temps Temperatura Punt de rosada Pression baro Vent Wind Speed RĂ fegues de vent Humitat Rainfall Rate (Hourly)
00:00 20.2 °C 15.0 °C 1009.0 hPa SW 1.6 km/h 4.8 km/h 72 % 0.0 mm
00:03 22.5 °C 18.1 °C 1011.7 hPa West 1.9 km/h   76 % 0.0 mm
00:10 20.2 °C 15.0 °C 1009.0 hPa SW 3.2 km/h 4.8 km/h 72 % 0.0 mm
00:20 20.7 °C 15.3 °C 1009.0 hPa WSW 3.2 km/h 4.8 km/h 71 % 0.0 mm
00:30 20.6 °C 15.2 °C 1010.0 hPa WSW 1.6 km/h 3.2 km/h 71 % 0.0 mm
00:40 20.4 °C 14.9 °C 1010.0 hPa Calm   3.2 km/h 71 % 0.0 mm
00:50 20.0 °C 14.8 °C 1010.0 hPa SW 3.2 km/h 4.8 km/h 72 % 0.0 mm
01:00 19.8 °C 15.1 °C 1010.0 hPa SW 1.6 km/h 3.2 km/h 74 % 0.0 mm
01:10 19.6 °C 14.8 °C 1010.0 hPa SW 1.6 km/h 3.2 km/h 74 % 0.0 mm
01:20 19.5 °C 14.9 °C 1010.0 hPa SW 1.6 km/h 1.6 km/h 75 % 0.0 mm
01:30 19.4 °C 15.1 °C 1010.0 hPa Calm   1.6 km/h 76 % 0.0 mm
01:40 19.4 °C 15.1 °C 1010.0 hPa East 1.6 km/h 1.6 km/h 76 % 0.0 mm
01:50 19.4 °C 15.1 °C 1010.0 hPa Calm   3.2 km/h 76 % 0.0 mm
02:00 19.3 °C 14.9 °C 1010.0 hPa West 1.6 km/h 3.2 km/h 76 % 0.0 mm
02:10 19.4 °C 15.1 °C 1010.0 hPa WSW 1.6 km/h 4.8 km/h 76 % 0.0 mm
02:20 19.6 °C 15.4 °C 1010.0 hPa SW 3.2 km/h 4.8 km/h 77 % 0.0 mm
02:30 19.8 °C 15.7 °C 1010.0 hPa SW 3.2 km/h 4.8 km/h 77 % 0.0 mm
02:40 20.2 °C 16.1 °C 1010.0 hPa Calm   4.8 km/h 77 % 0.0 mm
02:50 21.2 °C 16.8 °C 1010.0 hPa SSE 1.6 km/h 3.2 km/h 76 % 0.0 mm
03:00 21.4 °C 16.6 °C 1010.0 hPa SSE 1.6 km/h 3.2 km/h 74 % 0.0 mm
03:10 21.8 °C 16.9 °C 1010.0 hPa SSW 1.6 km/h 1.6 km/h 74 % 0.0 mm
03:20 22.1 °C 17.1 °C 1010.0 hPa SSW 1.6 km/h 3.2 km/h 73 % 0.0 mm
03:30 22.6 °C 17.1 °C 1010.0 hPa ENE 1.6 km/h 8.0 km/h 71 % 0.0 mm
03:40 23.1 °C 17.3 °C 1010.0 hPa NNE 4.8 km/h 4.8 km/h 70 % 0.0 mm
03:50 23.6 °C 17.6 °C 1010.0 hPa NNE 1.6 km/h 3.2 km/h 69 % 0.0 mm
04:00 23.8 °C 17.3 °C 1010.7 hPa Calm   4.8 km/h 67 % 0.0 mm
04:10 24.5 °C 17.5 °C 1010.7 hPa East 3.2 km/h 4.8 km/h 65 % 0.0 mm
04:20 24.4 °C 17.4 °C 1010.0 hPa ENE 1.6 km/h 3.2 km/h 65 % 0.0 mm
04:30 25.5 °C 17.9 °C 1010.7 hPa ESE 1.6 km/h 3.2 km/h 63 % 0.0 mm
04:40 25.7 °C 17.9 °C 1010.7 hPa SSW 1.6 km/h 3.2 km/h 62 % 0.0 mm
04:50 25.7 °C 17.9 °C 1010.7 hPa East 1.6 km/h 4.8 km/h 62 % 0.0 mm
05:00 26.1 °C 17.7 °C 1010.7 hPa NNW 1.6 km/h 4.8 km/h 60 % 0.0 mm
05:10 26.1 °C 17.7 °C 1010.7 hPa WNW 3.2 km/h 9.7 km/h 60 % 0.0 mm
10:19 26.6 °C 17.9 °C 1011.7 hPa WNW 3.7 km/h 3.9 km/h 59 % 0.0 mm
10:24 26.7 °C 17.8 °C 1010.7 hPa SW 9.3 km/h 9.3 km/h 58 % 0.0 mm
10:29 26.4 °C 17.2 °C 1010.7 hPa WSW 9.3 km/h 9.3 km/h 57 % 0.0 mm
10:34 26.5 °C 17.3 °C 1010.7 hPa WSW 9.3 km/h 9.3 km/h 57 % 0.0 mm
10:39 26.8 °C 17.6 °C 1010.7 hPa WSW 9.3 km/h 9.3 km/h 57 % 0.0 mm
10:44 27.0 °C 17.5 °C 1010.7 hPa NNW 7.4 km/h 7.4 km/h 56 % 0.0 mm
10:49 27.2 °C 17.4 °C 1010.7 hPa SSW 9.3 km/h 9.3 km/h 55 % 0.0 mm
10:54 27.4 °C 17.6 °C 1010.7 hPa West 9.3 km/h 9.3 km/h 55 % 0.0 mm
10:59 27.3 °C 17.4 °C 1010.7 hPa WSW 11.4 km/h 11.4 km/h 55 % 0.0 mm
11:04 27.4 °C 17.3 °C 1010.7 hPa SSW 3.7 km/h 3.7 km/h 54 % 0.0 mm
11:09 27.5 °C 17.4 °C 1010.7 hPa WSW 9.3 km/h 9.3 km/h 54 % 0.0 mm
11:14 28.1 °C 17.6 °C 1010.7 hPa WSW 4.2 km/h 4.2 km/h 53 % 0.0 mm
11:19 28.4 °C 17.9 °C 1010.7 hPa SW 5.3 km/h 5.3 km/h 53 % 0.0 mm
11:24 28.4 °C 17.6 °C 1010.7 hPa West 7.6 km/h 7.6 km/h 52 % 0.0 mm
11:29 28.6 °C 17.8 °C 1010.7 hPa West 5.6 km/h 5.6 km/h 52 % 0.0 mm
11:32 29.0 °C 17.5 °C 1010.7 hPa SW 3.7 km/h 3.7 km/h 50 % 0.0 mm
11:37 29.4 °C 17.9 °C 1010.7 hPa WSW 6.1 km/h 6.1 km/h 50 % 0.0 mm
11:42 28.6 °C 17.2 °C 1010.0 hPa SW 7.4 km/h 7.4 km/h 50 % 0.0 mm
11:47 28.7 °C 17.2 °C 1010.0 hPa SSW 7.4 km/h 7.4 km/h 50 % 0.0 mm
11:52 28.8 °C 17.3 °C 1010.0 hPa WSW 9.5 km/h 9.5 km/h 50 % 0.0 mm
11:57 28.9 °C 16.8 °C 1010.7 hPa SW 11.1 km/h 11.1 km/h 48 % 0.0 mm
12:02 29.3 °C 17.2 °C 1010.7 hPa South 5.6 km/h 5.6 km/h 48 % 0.0 mm
12:07 29.4 °C 16.9 °C 1010.7 hPa West 13.0 km/h 13.0 km/h 47 % 0.0 mm
12:12 29.4 °C 16.9 °C 1010.7 hPa South 11.1 km/h 11.1 km/h 47 % 0.0 mm
12:17 29.6 °C 17.1 °C 1010.7 hPa WSW 9.3 km/h 9.3 km/h 47 % 0.0 mm
12:22 30.1 °C 17.2 °C 1010.7 hPa SSW 3.7 km/h 3.7 km/h 46 % 0.0 mm
12:27 30.5 °C 17.6 °C 1010.7 hPa SW 3.7 km/h 3.7 km/h 46 % 0.0 mm
12:32 30.3 °C 17.4 °C 1010.7 hPa WSW 7.4 km/h 7.4 km/h 46 % 0.0 mm
12:37 30.4 °C 17.1 °C 1010.7 hPa NNE 7.4 km/h 7.4 km/h 45 % 0.0 mm
12:42 30.4 °C 17.1 °C 1010.0 hPa SSW 9.3 km/h 9.3 km/h 45 % 0.0 mm
12:47 30.0 °C 16.4 °C 1010.0 hPa NNW 13.0 km/h 13.0 km/h 44 % 0.0 mm
12:52 30.0 °C 16.4 °C 1010.0 hPa WSW 7.4 km/h 7.4 km/h 44 % 0.0 mm
12:57 30.3 °C 16.7 °C 1010.7 hPa SW 8.7 km/h 8.7 km/h 44 % 0.0 mm
13:02 30.9 °C 17.2 °C 1010.7 hPa SSE 5.6 km/h 5.6 km/h 44 % 0.0 mm
13:07 31.2 °C 17.1 °C 1010.7 hPa SW 5.6 km/h 5.6 km/h 43 % 0.0 mm
13:12 31.5 °C 17.4 °C 1010.0 hPa South 7.4 km/h 7.4 km/h 43 % 0.0 mm
13:17 31.2 °C 17.1 °C 1010.0 hPa SW 5.6 km/h 5.6 km/h 43 % 0.0 mm
13:22 31.3 °C 16.8 °C 1010.0 hPa WSW 9.3 km/h 9.3 km/h 42 % 0.0 mm
13:27 31.2 °C 16.8 °C 1010.7 hPa SW 7.4 km/h 7.4 km/h 42 % 0.0 mm
13:32 31.5 °C 17.1 °C 1010.7 hPa SW 7.4 km/h 7.4 km/h 42 % 0.0 mm
13:37 31.7 °C 16.8 °C 1010.7 hPa West 7.4 km/h 7.4 km/h 41 % 0.0 mm
13:42 31.5 °C 16.7 °C 1010.7 hPa West 9.3 km/h 9.3 km/h 41 % 0.0 mm
13:47 30.9 °C 16.5 °C 1010.7 hPa South 9.3 km/h 9.3 km/h 42 % 0.0 mm
13:52 31.0 °C 15.8 °C 1010.7 hPa WSW 6.9 km/h 6.9 km/h 40 % 0.0 mm
13:57 31.1 °C 16.3 °C 1010.0 hPa WSW 8.7 km/h 8.7 km/h 41 % 0.0 mm
14:02 31.4 °C 16.2 °C 1010.0 hPa NW 9.3 km/h 9.3 km/h 40 % 0.0 mm
14:07 30.7 °C 15.6 °C 1010.0 hPa ESE 8.7 km/h 8.7 km/h 40 % 0.0 mm
14:12 30.9 °C 15.7 °C 1009.0 hPa SW 9.3 km/h 9.3 km/h 40 % 0.0 mm
14:17 30.7 °C 15.6 °C 1009.0 hPa ENE 9.3 km/h 9.3 km/h 40 % 0.0 mm
14:22 31.1 °C 15.5 °C 1009.0 hPa NE 5.8 km/h 5.8 km/h 39 % 0.0 mm
14:27 30.8 °C 15.7 °C 1010.0 hPa WSW 9.3 km/h 9.3 km/h 40 % 0.0 mm
14:32 30.8 °C 15.7 °C 1010.0 hPa South 7.4 km/h 7.4 km/h 40 % 0.0 mm
14:37 31.3 °C 15.7 °C 1010.0 hPa West 6.1 km/h 6.4 km/h 39 % 0.0 mm
14:42 31.1 °C 15.5 °C 1010.0 hPa South 5.6 km/h 5.6 km/h 39 % 0.0 mm
14:47 31.7 °C 15.6 °C 1010.0 hPa East 5.6 km/h 5.6 km/h 38 % 0.0 mm
14:52 31.4 °C 15.8 °C 1010.0 hPa SW 9.3 km/h 9.3 km/h 39 % 0.0 mm
14:57 30.8 °C 15.7 °C 1010.0 hPa SW 9.3 km/h 9.3 km/h 40 % 0.0 mm
15:02 31.6 °C 16.3 °C 1010.0 hPa SW 9.3 km/h 9.3 km/h 40 % 0.0 mm
15:07 31.9 °C 16.2 °C 1010.0 hPa South 7.4 km/h 7.4 km/h 39 % 0.0 mm
15:12 31.9 °C 16.2 °C 1010.0 hPa South 7.4 km/h 7.4 km/h 39 % 0.0 mm
15:17 31.0 °C 15.4 °C 1010.0 hPa South 9.3 km/h 9.3 km/h 39 % 0.0 mm
15:22 30.6 °C 15.4 °C 1010.0 hPa WSW 9.3 km/h 9.3 km/h 40 % 0.0 mm
15:27 30.5 °C 15.4 °C 1010.0 hPa SSW 5.6 km/h 5.6 km/h 40 % 0.0 mm
15:32 30.2 °C 15.5 °C 1010.0 hPa SSW 7.4 km/h 7.4 km/h 41 % 0.0 mm
15:37 30.0 °C 15.3 °C 1010.0 hPa South 9.3 km/h 9.3 km/h 41 % 0.0 mm
15:42 30.5 °C 15.8 °C 1010.0 hPa WSW 7.4 km/h 7.4 km/h 41 % 0.0 mm
15:47 30.4 °C 15.7 °C 1010.0 hPa SW 13.0 km/h 13.0 km/h 41 % 0.0 mm
15:52 30.4 °C 15.7 °C 1010.0 hPa West 14.5 km/h 14.5 km/h 41 % 0.0 mm
15:57 30.8 °C 16.0 °C 1010.0 hPa West 7.4 km/h 7.4 km/h 41 % 0.0 mm
16:02 31.6 °C 16.3 °C 1010.0 hPa South 9.3 km/h 9.3 km/h 40 % 0.0 mm
16:07 31.4 °C 15.8 °C 1010.0 hPa West 7.4 km/h 7.4 km/h 39 % 0.0 mm
16:12 31.9 °C 16.2 °C 1010.0 hPa West 5.6 km/h 5.6 km/h 39 % 0.0 mm
16:17 32.1 °C 16.4 °C 1010.0 hPa SW 9.0 km/h 9.0 km/h 39 % 0.0 mm
16:22 32.2 °C 16.5 °C 1010.0 hPa South 11.1 km/h 11.1 km/h 39 % 0.0 mm
16:27 31.6 °C 15.6 °C 1010.0 hPa SSW 7.4 km/h 7.4 km/h 38 % 0.0 mm
16:32 32.1 °C 16.0 °C 1010.0 hPa SW 7.4 km/h 7.4 km/h 38 % 0.0 mm
16:37 31.2 °C 15.2 °C 1010.0 hPa SW 14.8 km/h 14.8 km/h 38 % 0.0 mm
16:38 31.2 °C 15.2 °C 1010.0 hPa South 5.6 km/h 5.6 km/h 38 % 0.0 mm
16:43 31.0 °C 15.0 °C 1010.0 hPa SW 13.0 km/h 13.0 km/h 38 % 0.0 mm
16:48 30.4 °C 14.9 °C 1010.0 hPa SW 14.8 km/h 14.8 km/h 39 % 0.0 mm
16:53 31.2 °C 15.6 °C 1010.0 hPa SW 9.3 km/h 9.3 km/h 39 % 0.0 mm
16:58 31.4 °C 15.8 °C 1010.0 hPa SSW 13.0 km/h 13.0 km/h 39 % 0.0 mm
17:03 31.8 °C 15.7 °C 1010.0 hPa SW 11.1 km/h 11.1 km/h 38 % 0.0 mm
17:08 32.0 °C 15.9 °C 1010.0 hPa SW 16.7 km/h 16.7 km/h 38 % 0.0 mm
17:09 31.9 °C 15.8 °C 1010.0 hPa SSW 11.1 km/h 11.1 km/h 38 % 0.0 mm
17:14 31.7 °C 15.6 °C 1010.0 hPa West 9.3 km/h 9.3 km/h 38 % 0.0 mm
17:19 32.0 °C 15.9 °C 1010.0 hPa South 13.0 km/h 13.0 km/h 38 % 0.0 mm
17:24 31.7 °C 15.6 °C 1010.0 hPa SSW 11.1 km/h 11.1 km/h 38 % 0.0 mm
17:29 31.5 °C 15.4 °C 1010.0 hPa South 15.8 km/h 15.8 km/h 38 % 0.0 mm
17:34 31.4 °C 14.9 °C 1010.0 hPa SSW 13.0 km/h 13.0 km/h 37 % 0.0 mm
17:39 30.7 °C 14.8 °C 1010.0 hPa SSW 18.5 km/h 18.5 km/h 38 % 0.0 mm
17:44 30.3 °C 14.8 °C 1010.0 hPa SSW 9.3 km/h 9.3 km/h 39 % 0.0 mm
17:49 30.2 °C 14.7 °C 1010.0 hPa WSW 11.1 km/h 11.1 km/h 39 % 0.0 mm
17:54 30.3 °C 14.8 °C 1010.0 hPa South 11.9 km/h 11.9 km/h 39 % 0.0 mm
17:59 29.8 °C 14.7 °C 1010.0 hPa West 11.1 km/h 11.1 km/h 40 % 0.0 mm
18:04 30.3 °C 15.2 °C 1010.0 hPa SW 9.3 km/h 9.3 km/h 40 % 0.0 mm
18:09 30.3 °C 15.2 °C 1009.0 hPa SW 5.6 km/h 5.6 km/h 40 % 0.0 mm
18:14 30.4 °C 15.3 °C 1009.0 hPa SSE 9.3 km/h 9.3 km/h 40 % 0.0 mm
18:19 30.6 °C 15.4 °C 1009.0 hPa SSW 9.3 km/h 9.3 km/h 40 % 0.0 mm
18:24 30.9 °C 15.7 °C 1009.0 hPa WSW 9.3 km/h 9.3 km/h 40 % 0.0 mm
18:29 30.9 °C 15.7 °C 1009.0 hPa SW 11.1 km/h 11.1 km/h 40 % 0.0 mm
18:34 31.2 °C 15.6 °C 1009.0 hPa WSW 7.9 km/h 7.9 km/h 39 % 0.0 mm
18:39 30.7 °C 15.6 °C 1010.0 hPa SW 18.5 km/h 18.5 km/h 40 % 0.0 mm
18:44 30.5 °C 15.4 °C 1010.0 hPa SW 13.0 km/h 13.0 km/h 40 % 0.0 mm
18:49 30.2 °C 15.1 °C 1010.0 hPa SW 11.1 km/h 11.1 km/h 40 % 0.0 mm
18:54 30.2 °C 15.5 °C 1009.0 hPa WSW 7.4 km/h 7.4 km/h 41 % 0.0 mm
18:59 30.3 °C 15.6 °C 1009.0 hPa South 9.3 km/h 9.3 km/h 41 % 0.0 mm
19:04 30.4 °C 15.7 °C 1009.0 hPa WSW 5.6 km/h 5.6 km/h 41 % 0.0 mm
19:09 30.4 °C 15.7 °C 1010.0 hPa SW 7.4 km/h 7.4 km/h 41 % 0.0 mm
19:14 30.3 °C 15.6 °C 1010.0 hPa WSW 7.9 km/h 7.9 km/h 41 % 0.0 mm
19:19 30.0 °C 15.3 °C 1010.0 hPa WSW 5.3 km/h 5.3 km/h 41 % 0.0 mm
19:20 22.5 °C 18.3 °C 1011.7 hPa NE 4.8 km/h 4.8 km/h 77 % 0.0 mm
19:24 30.0 °C 15.3 °C 1010.0 hPa WSW 11.1 km/h 11.1 km/h 41 % 0.0 mm
19:29 29.9 °C 15.6 °C 1010.0 hPa SSE 5.6 km/h 5.6 km/h 42 % 0.0 mm
19:34 29.6 °C 15.3 °C 1010.0 hPa SE 9.3 km/h 9.3 km/h 42 % 0.0 mm
19:39 28.8 °C 15.3 °C 1010.0 hPa SSW 7.4 km/h 7.4 km/h 44 % 0.0 mm
19:40 22.3 °C 18.3 °C 1011.7 hPa NE 4.8 km/h 4.8 km/h 78 % 0.0 mm
19:44 27.9 °C 15.6 °C 1010.0 hPa East 20.4 km/h 20.4 km/h 47 % 0.0 mm
19:49 27.5 °C 15.5 °C 1010.0 hPa ENE 20.4 km/h 20.4 km/h 48 % 0.0 mm
19:50 22.3 °C 18.3 °C 1011.7 hPa NE 3.2 km/h 4.8 km/h 78 % 0.0 mm
19:54 27.4 °C 15.7 °C 1010.0 hPa ESE 16.7 km/h 16.7 km/h 49 % 0.0 mm
19:59 27.0 °C 15.7 °C 1010.0 hPa ENE 11.1 km/h 11.1 km/h 50 % 0.0 mm
20:00 22.2 °C 18.2 °C 1010.7 hPa NE 4.8 km/h 4.8 km/h 78 % 0.0 mm
20:04 26.7 °C 16.0 °C 1010.0 hPa ENE 16.7 km/h 16.7 km/h 52 % 0.0 mm
20:09 26.5 °C 15.8 °C 1010.0 hPa East 13.0 km/h 13.0 km/h 52 % 0.0 mm
20:10 22.2 °C 18.2 °C 1010.7 hPa NE 3.2 km/h 4.8 km/h 78 % 0.0 mm
20:14 26.3 °C 15.9 °C 1010.0 hPa East 11.1 km/h 11.1 km/h 53 % 0.0 mm
20:19 26.2 °C 16.2 °C 1010.0 hPa NE 12.2 km/h 12.2 km/h 54 % 0.0 mm
20:20 22.1 °C 18.3 °C 1011.7 hPa NE 1.6 km/h 4.8 km/h 79 % 0.0 mm
20:24 26.0 °C 16.3 °C 1010.0 hPa ESE 11.1 km/h 11.1 km/h 55 % 0.0 mm
20:29 26.0 °C 16.6 °C 1010.0 hPa East 16.7 km/h 16.7 km/h 56 % 0.0 mm
20:30 22.1 °C 18.3 °C 1010.7 hPa NE 3.2 km/h 3.2 km/h 79 % 0.0 mm
20:34 26.0 °C 16.6 °C 1010.0 hPa East 14.8 km/h 14.8 km/h 56 % 0.0 mm
20:39 25.8 °C 16.6 °C 1010.0 hPa East 16.7 km/h 16.7 km/h 57 % 0.0 mm
20:40 22.0 °C 18.2 °C 1010.7 hPa NE 1.6 km/h 3.2 km/h 79 % 0.0 mm
20:44 25.6 °C 16.7 °C 1010.0 hPa NE 10.0 km/h 10.0 km/h 58 % 0.0 mm
20:49 25.5 °C 16.9 °C 1010.0 hPa East 14.8 km/h 14.8 km/h 59 % 0.0 mm
20:50 22.0 °C 18.2 °C 1011.7 hPa NE 1.6 km/h 3.2 km/h 79 % 0.0 mm
20:54 25.3 °C 17.0 °C 1010.0 hPa SE 9.3 km/h 9.3 km/h 60 % 0.0 mm
20:59 25.3 °C 17.0 °C 1010.0 hPa ESE 11.1 km/h 11.1 km/h 60 % 0.0 mm
21:00 22.0 °C 18.2 °C 1010.7 hPa NE 1.6 km/h 1.6 km/h 79 % 0.0 mm
21:04 25.1 °C 17.1 °C 1010.0 hPa East 18.5 km/h 18.5 km/h 61 % 0.0 mm
21:09 25.1 °C 17.1 °C 1010.0 hPa ENE 7.9 km/h 7.9 km/h 61 % 0.0 mm
21:10 21.8 °C 18.0 °C 1010.7 hPa NE 1.6 km/h 3.2 km/h 79 % 0.0 mm
21:14 24.9 °C 17.1 °C 1010.0 hPa East 13.0 km/h 13.0 km/h 62 % 0.0 mm
21:19 24.7 °C 17.4 °C 1010.0 hPa East 9.3 km/h 9.3 km/h 64 % 0.0 mm
21:20 21.7 °C 18.1 °C 1011.7 hPa Calm   3.2 km/h 80 % 0.0 mm
21:24 24.6 °C 17.3 °C 1010.7 hPa East 11.1 km/h 11.1 km/h 64 % 0.0 mm
21:29 24.6 °C 17.6 °C 1010.7 hPa ESE 11.1 km/h 11.1 km/h 65 % 0.0 mm
21:30 21.6 °C 18.0 °C 1011.7 hPa Calm   1.6 km/h 80 % 0.0 mm
21:34 24.4 °C 17.6 °C 1010.7 hPa NNE 9.3 km/h 9.3 km/h 66 % 0.0 mm
21:39 24.3 °C 17.8 °C 1010.7 hPa ESE 11.1 km/h 11.1 km/h 67 % 0.0 mm
21:40 21.5 °C 17.9 °C 1011.7 hPa Calm     80 % 0.0 mm
21:44 24.2 °C 17.7 °C 1010.7 hPa East 9.3 km/h 9.3 km/h 67 % 0.0 mm
21:49 24.1 °C 17.6 °C 1010.7 hPa ENE 5.6 km/h 5.6 km/h 67 % 0.0 mm
21:50 21.4 °C 17.8 °C 1011.7 hPa Calm   1.6 km/h 80 % 0.0 mm
21:54 24.0 °C 17.7 °C 1011.7 hPa ENE 5.8 km/h 5.8 km/h 68 % 0.0 mm
21:59 24.0 °C 17.7 °C 1011.7 hPa NW 9.3 km/h 9.3 km/h 68 % 0.0 mm
22:00 21.3 °C 17.7 °C 1011.7 hPa Calm     80 % 0.0 mm
22:04 23.8 °C 18.0 °C 1011.7 hPa East 9.3 km/h 9.3 km/h 70 % 0.0 mm
22:09 23.8 °C 18.2 °C 1011.7 hPa East 9.7 km/h 9.7 km/h 71 % 0.0 mm
22:10 21.1 °C 17.5 °C 1011.7 hPa Calm     80 % 0.0 mm
22:14 23.7 °C 18.1 °C 1011.7 hPa East 9.3 km/h 9.3 km/h 71 % 0.0 mm
22:19 23.7 °C 18.1 °C 1011.7 hPa ESE 9.3 km/h 9.3 km/h 71 % 0.0 mm
22:20 21.1 °C 17.7 °C 1011.7 hPa Calm     81 % 0.0 mm
22:24 23.6 °C 18.3 °C 1011.7 hPa North 9.3 km/h 9.3 km/h 72 % 0.0 mm
22:29 23.5 °C 18.2 °C 1011.7 hPa ENE 14.8 km/h 14.8 km/h 72 % 0.0 mm
22:30 21.2 °C 17.8 °C 1011.7 hPa Calm   1.6 km/h 81 % 0.0 mm
22:34 23.5 °C 18.4 °C 1011.7 hPa NNE 7.4 km/h 7.4 km/h 73 % 0.0 mm
22:39 23.4 °C 18.3 °C 1011.7 hPa ENE 4.2 km/h 4.7 km/h 73 % 0.0 mm
22:40 21.1 °C 17.7 °C 1011.7 hPa NNE 1.6 km/h 1.6 km/h 81 % 0.0 mm
22:44 23.3 °C 18.2 °C 1011.7 hPa NNE 5.6 km/h 5.6 km/h 73 % 0.0 mm
22:49 23.3 °C 18.2 °C 1011.7 hPa ENE 7.4 km/h 7.4 km/h 73 % 0.0 mm
22:50 21.0 °C 17.6 °C 1011.7 hPa Calm     81 % 0.0 mm
22:54 23.3 °C 18.4 °C 1010.7 hPa East 5.6 km/h 5.6 km/h 74 % 0.0 mm
22:59 23.2 °C 18.3 °C 1010.7 hPa ENE 7.4 km/h 7.4 km/h 74 % 0.0 mm
23:00 20.8 °C 17.6 °C 1011.7 hPa Calm     82 % 0.0 mm
23:04 23.2 °C 18.3 °C 1010.7 hPa NE 5.6 km/h 5.6 km/h 74 % 0.0 mm
23:09 23.2 °C 18.3 °C 1010.7 hPa NNE 5.6 km/h 5.6 km/h 74 % 0.0 mm
23:10 20.8 °C 17.6 °C 1011.7 hPa Calm   3.2 km/h 82 % 0.0 mm
23:14 23.1 °C 18.2 °C 1010.7 hPa NE 7.4 km/h 7.4 km/h 74 % 0.0 mm
23:19 23.1 °C 18.2 °C 1010.7 hPa ENE 5.6 km/h 5.6 km/h 74 % 0.0 mm
23:20 20.7 °C 17.7 °C 1011.7 hPa ENE 1.6 km/h 3.2 km/h 83 % 0.0 mm
23:24 23.0 °C 18.1 °C 1011.7 hPa ENE 5.6 km/h 5.6 km/h 74 % 0.0 mm
23:29 23.0 °C 18.1 °C 1011.7 hPa ESE 5.0 km/h 5.0 km/h 74 % 0.0 mm
23:30 20.7 °C 17.7 °C 1011.7 hPa ENE 1.6 km/h 1.6 km/h 83 % 0.0 mm
23:34 23.0 °C 18.3 °C 1011.7 hPa NE 3.9 km/h 3.9 km/h 75 % 0.0 mm
23:39 22.9 °C 18.2 °C 1011.7 hPa NE 3.7 km/h 3.7 km/h 75 % 0.0 mm
23:40 20.7 °C 17.7 °C 1011.7 hPa NE 1.6 km/h 1.6 km/h 83 % 0.0 mm
23:44 22.9 °C 18.4 °C 1011.7 hPa ENE 3.9 km/h 3.9 km/h 76 % 0.0 mm
23:49 22.8 °C 18.1 °C 1011.7 hPa ENE 6.9 km/h 6.9 km/h 75 % 0.0 mm
23:50 20.5 °C 17.5 °C 1010.7 hPa Calm   4.8 km/h 83 % 0.0 mm
23:54 22.8 °C 18.3 °C 1011.7 hPa NNE 5.6 km/h 5.6 km/h 76 % 0.0 mm
23:59 22.7 °C 18.2 °C 1011.7 hPa ENE 7.4 km/h 7.4 km/h 76 % 0.0 mm
Meteo Sesrovires
Elogis d' Weather Underground - 3.75 mb

Guio original per  Jim McMurry - jmcmurry@mwt.net Adaptat per a la plantilla per  Wim van der Kuil - Leuven-Template.eu

Trobareu la nostra informacio del temps tambe a:

Weather Underground

AWEKAS